Asunción, Argentina

4:52 PM -03 en Marzo 24, 2017 (GMT -0300)
Parque Nacional Río Pilcomayo | | Change Station

Alt 256 ft 25.12 °S, 58.19 °W | Updated 3 minutes ago

Parcialmente nublado
Parcialmente nublado
91.6 ° F
Sensación térmica 105 ° F
N
0.0
Viento Variable Viento desde SSO

Hoy
Alta -- | Baja -- ° F
--% Posibilidad de precipitaciones
Ayer
Alta -- | Baja -- ° F
Precip. -- pul
Presión 29.83 pul
Visibilidad 6.2 Millas
Nubes Muy nublado 3300 ft
Índice de calor 105 ° F
Punto de rocío 77 ° F
Humedad 62%
Precipitaciones 0.05 pul
Espesor de la nieve No disponible.
6:58 AM 6:58 PM
Creciente menguante, 13% visible
METAR SGAS 241900Z 32003KT 270V040 9999 BKN033 33/22 Q1010
Presión 29.83 pul
Visibilidad 6.2 Millas
Nubes Muy nublado 3300 ft
Índice de calor 105 ° F
Punto de rocío 77 ° F
Humedad 62%
Precipitaciones 0.05 pul
Espesor de la nieve No disponible.
6:58 AM 6:58 PM
Creciente menguante, 13% visible
METAR SGAS 241900Z 32003KT 270V040 9999 BKN033 33/22 Q1010

Get Severe Weather Alerts

Thanks for signing up!

Be on the lookout for a verification email in your inbox.

You'll start receiving the daily forecast at 8 AM.

×

10-Day Weather Forecast

Almanac

Astronomía

Mar. 24, 2017 Salida Puesta
Hora real
Crepúsculo civil
Crepúsculo náutico
Crepúsculo astronómico
Luna
Horas de luz
Horas de luz
Tomorrow will be .
, % of the Moon is Illuminated

Extremos de hoy

Máximos del país Bajas del país

Community

WunderPhotos

Upload Photos

1,962,540 ¡fotos cargadas!

WunderBlog® & News

Nearby

Calidad del aire

  Calidad del aire Índice AQ Contaminante
Not available.

Grosos de nieve

Estación Profundido Altura

Actividad de terremotos

Ciudad Distance Mag. Tiempo y dato
Magnitud mínima muestra es 2,5.

Actividad de terremotos

Ciudad Distance Mag. Tiempo y dato
Magnitud mínima muestra es 2,5.

Temperaturas de aguas costeras

Lugar Temperatura

Stations

Estaciones meteorológicas cercanas

Ubicación de la estación Temp. Vientos helados Punto de rocío Humedad Viento Precip. Alt Actualizado Tipo